sensor_id;sensor_type;location;lat;lon;timestamp;P1;durP1;ratioP1;P2;durP2;ratioP2
11008;SDS011;5557;51.670;7.788;2022-08-19T00:02:02;13.60;;;11.30;;
11008;SDS011;5557;51.670;7.788;2022-08-19T00:04:31;15.67;;;11.60;;
11008;SDS011;5557;51.670;7.788;2022-08-19T00:07:03;21.57;;;10.40;;
11008;SDS011;5557;51.670;7.788;2022-08-19T00:09:31;13.03;;;9.70;;
11008;SDS011;5557;51.670;7.788;2022-08-19T00:11:59;13.60;;;12.03;;
11008;SDS011;5557;51.670;7.788;2022-08-19T00:14:28;12.43;;;10.93;;
11008;SDS011;5557;51.670;7.788;2022-08-19T00:16:57;14.43;;;10.73;;
11008;SDS011;5557;51.670;7.788;2022-08-19T00:19:25;12.63;;;11.43;;
11008;SDS011;5557;51.670;7.788;2022-08-19T00:21:52;11.60;;;9.00;;
11008;SDS011;5557;51.670;7.788;2022-08-19T00:24:19;11.53;;;10.37;;
11008;SDS011;5557;51.670;7.788;2022-08-19T00:26:46;12.93;;;11.20;;
11008;SDS011;5557;51.670;7.788;2022-08-19T00:29:14;13.43;;;10.57;;
11008;SDS011;5557;51.670;7.788;2022-08-19T00:31:43;11.40;;;10.40;;
11008;SDS011;5557;51.670;7.788;2022-08-19T00:34:11;14.20;;;11.70;;
11008;SDS011;5557;51.670;7.788;2022-08-19T00:36:40;16.73;;;10.67;;
11008;SDS011;5557;51.670;7.788;2022-08-19T00:39:08;11.33;;;10.20;;
11008;SDS011;5557;51.670;7.788;2022-08-19T00:41:35;10.47;;;9.37;;
11008;SDS011;5557;51.670;7.788;2022-08-19T00:44:10;13.10;;;11.00;;
11008;SDS011;5557;51.670;7.788;2022-08-19T00:46:40;13.13;;;11.73;;
11008;SDS011;5557;51.670;7.788;2022-08-19T00:49:11;23.70;;;15.70;;
11008;SDS011;5557;51.670;7.788;2022-08-19T00:51:45;13.80;;;11.97;;
11008;SDS011;5557;51.670;7.788;2022-08-19T00:54:16;16.10;;;12.30;;
11008;SDS011;5557;51.670;7.788;2022-08-19T00:56:53;17.30;;;12.67;;
11008;SDS011;5557;51.670;7.788;2022-08-19T00:59:21;12.70;;;11.40;;
11008;SDS011;5557;51.670;7.788;2022-08-19T01:02:08;15.43;;;12.60;;
11008;SDS011;5557;51.670;7.788;2022-08-19T01:04:35;11.30;;;10.23;;
11008;SDS011;5557;51.670;7.788;2022-08-19T01:07:02;15.30;;;11.63;;
11008;SDS011;5557;51.670;7.788;2022-08-19T01:09:29;16.63;;;10.33;;
11008;SDS011;5557;51.670;7.788;2022-08-19T01:11:57;19.20;;;12.27;;
11008;SDS011;5557;51.670;7.788;2022-08-19T01:14:24;14.13;;;10.73;;
11008;SDS011;5557;51.670;7.788;2022-08-19T01:16:52;19.73;;;11.70;;
11008;SDS011;5557;51.670;7.788;2022-08-19T01:19:24;15.10;;;10.43;;
11008;SDS011;5557;51.670;7.788;2022-08-19T01:22:27;12.03;;;10.67;;
11008;SDS011;5557;51.670;7.788;2022-08-19T01:25:01;14.40;;;11.10;;
11008;SDS011;5557;51.670;7.788;2022-08-19T01:27:39;15.43;;;11.00;;
11008;SDS011;5557;51.670;7.788;2022-08-19T01:30:10;13.30;;;10.30;;
11008;SDS011;5557;51.670;7.788;2022-08-19T01:32:40;15.63;;;10.43;;
11008;SDS011;5557;51.670;7.788;2022-08-19T01:35:10;16.30;;;9.97;;
11008;SDS011;5557;51.670;7.788;2022-08-19T01:37:48;24.30;;;12.00;;
11008;SDS011;5557;51.670;7.788;2022-08-19T01:40:22;14.00;;;10.00;;
11008;SDS011;5557;51.670;7.788;2022-08-19T01:42:51;18.90;;;11.10;;
11008;SDS011;5557;51.670;7.788;2022-08-19T01:45:21;15.53;;;10.70;;
11008;SDS011;5557;51.670;7.788;2022-08-19T01:47:49;24.97;;;11.60;;
11008;SDS011;5557;51.670;7.788;2022-08-19T01:50:27;14.30;;;11.10;;
11008;SDS011;5557;51.670;7.788;2022-08-19T01:52:56;13.40;;;10.10;;
11008;SDS011;5557;51.670;7.788;2022-08-19T01:55:32;13.57;;;10.77;;
11008;SDS011;5557;51.670;7.788;2022-08-19T01:58:08;20.57;;;11.40;;
11008;SDS011;5557;51.670;7.788;2022-08-19T02:00:40;17.97;;;11.73;;
11008;SDS011;5557;51.670;7.788;2022-08-19T02:03:08;17.80;;;11.23;;
11008;SDS011;5557;51.670;7.788;2022-08-19T02:05:36;14.53;;;12.33;;
11008;SDS011;5557;51.670;7.788;2022-08-19T02:08:04;16.53;;;12.27;;
11008;SDS011;5557;51.670;7.788;2022-08-19T02:10:31;16.07;;;12.47;;
11008;SDS011;5557;51.670;7.788;2022-08-19T02:12:58;20.90;;;13.40;;
11008;SDS011;5557;51.670;7.788;2022-08-19T02:15:25;22.30;;;14.63;;
11008;SDS011;5557;51.670;7.788;2022-08-19T02:17:52;20.90;;;13.63;;
11008;SDS011;5557;51.670;7.788;2022-08-19T02:20:20;17.07;;;13.97;;
11008;SDS011;5557;51.670;7.788;2022-08-19T02:22:46;18.60;;;12.37;;
11008;SDS011;5557;51.670;7.788;2022-08-19T02:25:13;20.33;;;12.00;;
11008;SDS011;5557;51.670;7.788;2022-08-19T02:27:41;15.50;;;13.07;;
11008;SDS011;5557;51.670;7.788;2022-08-19T02:30:10;17.07;;;13.50;;
11008;SDS011;5557;51.670;7.788;2022-08-19T02:32:39;16.50;;;13.33;;
11008;SDS011;5557;51.670;7.788;2022-08-19T02:35:10;14.87;;;13.27;;
11008;SDS011;5557;51.670;7.788;2022-08-19T02:37:38;21.47;;;14.23;;
11008;SDS011;5557;51.670;7.788;2022-08-19T02:40:23;17.13;;;14.27;;
11008;SDS011;5557;51.670;7.788;2022-08-19T02:42:50;15.33;;;13.10;;
11008;SDS011;5557;51.670;7.788;2022-08-19T02:45:17;16.27;;;13.20;;
11008;SDS011;5557;51.670;7.788;2022-08-19T02:47:45;16.20;;;13.70;;
11008;SDS011;5557;51.670;7.788;2022-08-19T02:50:12;15.93;;;14.27;;
11008;SDS011;5557;51.670;7.788;2022-08-19T02:52:39;18.73;;;15.00;;
11008;SDS011;5557;51.670;7.788;2022-08-19T02:55:07;19.30;;;15.70;;
11008;SDS011;5557;51.670;7.788;2022-08-19T02:57:34;30.10;;;15.27;;
11008;SDS011;5557;51.670;7.788;2022-08-19T03:00:03;19.33;;;13.70;;
11008;SDS011;5557;51.670;7.788;2022-08-19T03:02:34;21.20;;;14.40;;
11008;SDS011;5557;51.670;7.788;2022-08-19T03:05:02;21.77;;;12.87;;
11008;SDS011;5557;51.670;7.788;2022-08-19T03:07:30;18.23;;;14.57;;
11008;SDS011;5557;51.670;7.788;2022-08-19T03:09:57;15.40;;;12.93;;
11008;SDS011;5557;51.670;7.788;2022-08-19T03:12:24;21.10;;;13.50;;
11008;SDS011;5557;51.670;7.788;2022-08-19T03:14:51;14.00;;;12.67;;
11008;SDS011;5557;51.670;7.788;2022-08-19T03:17:19;16.30;;;14.23;;
11008;SDS011;5557;51.670;7.788;2022-08-19T03:19:46;18.97;;;13.97;;
11008;SDS011;5557;51.670;7.788;2022-08-19T03:22:13;16.20;;;13.80;;
11008;SDS011;5557;51.670;7.788;2022-08-19T03:24:40;17.90;;;14.50;;
11008;SDS011;5557;51.670;7.788;2022-08-19T03:27:07;15.40;;;13.80;;
11008;SDS011;5557;51.670;7.788;2022-08-19T03:29:34;20.43;;;14.20;;
11008;SDS011;5557;51.670;7.788;2022-08-19T03:32:09;16.53;;;14.83;;
11008;SDS011;5557;51.670;7.788;2022-08-19T03:34:57;17.70;;;15.40;;
11008;SDS011;5557;51.670;7.788;2022-08-19T03:37:24;18.50;;;15.87;;
11008;SDS011;5557;51.670;7.788;2022-08-19T03:39:52;26.13;;;16.10;;
11008;SDS011;5557;51.670;7.788;2022-08-19T03:42:19;17.37;;;15.57;;
11008;SDS011;5557;51.670;7.788;2022-08-19T03:45:05;19.67;;;17.03;;
11008;SDS011;5557;51.670;7.788;2022-08-19T03:47:33;19.37;;;16.60;;
11008;SDS011;5557;51.670;7.788;2022-08-19T03:50:00;24.60;;;17.97;;
11008;SDS011;5557;51.670;7.788;2022-08-19T03:52:28;31.73;;;16.50;;
11008;SDS011;5557;51.670;7.788;2022-08-19T03:54:55;21.37;;;17.20;;
11008;SDS011;5557;51.670;7.788;2022-08-19T03:57:22;18.67;;;16.57;;
11008;SDS011;5557;51.670;7.788;2022-08-19T03:59:57;20.73;;;17.90;;
11008;SDS011;5557;51.670;7.788;2022-08-19T04:02:39;23.97;;;16.90;;
11008;SDS011;5557;51.670;7.788;2022-08-19T04:05:06;22.80;;;17.10;;
11008;SDS011;5557;51.670;7.788;2022-08-19T04:07:34;19.17;;;16.60;;
11008;SDS011;5557;51.670;7.788;2022-08-19T04:10:02;27.67;;;16.43;;
11008;SDS011;5557;51.670;7.788;2022-08-19T04:12:30;23.20;;;18.77;;
11008;SDS011;5557;51.670;7.788;2022-08-19T04:14:59;22.40;;;19.17;;
11008;SDS011;5557;51.670;7.788;2022-08-19T04:17:26;29.10;;;19.17;;
11008;SDS011;5557;51.670;7.788;2022-08-19T04:19:53;25.20;;;18.97;;
11008;SDS011;5557;51.670;7.788;2022-08-19T04:22:20;28.73;;;18.40;;
11008;SDS011;5557;51.670;7.788;2022-08-19T04:24:47;22.53;;;18.00;;
11008;SDS011;5557;51.670;7.788;2022-08-19T04:27:14;24.10;;;18.63;;
11008;SDS011;5557;51.670;7.788;2022-08-19T04:29:42;29.53;;;18.10;;
11008;SDS011;5557;51.670;7.788;2022-08-19T04:32:10;26.57;;;19.53;;
11008;SDS011;5557;51.670;7.788;2022-08-19T04:34:37;24.70;;;19.17;;
11008;SDS011;5557;51.670;7.788;2022-08-19T04:37:25;24.60;;;20.27;;
11008;SDS011;5557;51.670;7.788;2022-08-19T04:40:00;31.77;;;22.80;;
11008;SDS011;5557;51.670;7.788;2022-08-19T04:42:45;24.97;;;20.83;;
11008;SDS011;5557;51.670;7.788;2022-08-19T04:45:13;27.87;;;21.60;;
11008;SDS011;5557;51.670;7.788;2022-08-19T04:47:43;27.97;;;22.07;;
11008;SDS011;5557;51.670;7.788;2022-08-19T04:50:24;38.73;;;24.77;;
11008;SDS011;5557;51.670;7.788;2022-08-19T04:52:52;29.87;;;24.77;;
11008;SDS011;5557;51.670;7.788;2022-08-19T04:55:20;37.30;;;26.57;;
11008;SDS011;5557;51.670;7.788;2022-08-19T04:57:47;38.10;;;27.00;;
11008;SDS011;5557;51.670;7.788;2022-08-19T05:00:14;33.07;;;24.10;;
11008;SDS011;5557;51.670;7.788;2022-08-19T05:02:41;36.70;;;25.93;;
11008;SDS011;5557;51.670;7.788;2022-08-19T05:05:08;36.23;;;27.47;;
11008;SDS011;5557;51.670;7.788;2022-08-19T05:07:35;36.63;;;25.70;;
11008;SDS011;5557;51.670;7.788;2022-08-19T05:10:03;38.87;;;25.63;;
11008;SDS011;5557;51.670;7.788;2022-08-19T05:12:31;33.90;;;25.40;;
11008;SDS011;5557;51.670;7.788;2022-08-19T05:14:58;36.13;;;26.50;;
11008;SDS011;5557;51.670;7.788;2022-08-19T05:17:27;38.70;;;25.93;;
11008;SDS011;5557;51.670;7.788;2022-08-19T05:20:00;35.30;;;25.27;;
11008;SDS011;5557;51.670;7.788;2022-08-19T05:22:46;38.53;;;24.70;;
11008;SDS011;5557;51.670;7.788;2022-08-19T05:25:15;36.43;;;25.37;;
11008;SDS011;5557;51.670;7.788;2022-08-19T05:27:46;40.53;;;26.00;;
11008;SDS011;5557;51.670;7.788;2022-08-19T05:30:13;42.27;;;28.97;;
11008;SDS011;5557;51.670;7.788;2022-08-19T05:32:41;40.67;;;26.93;;
11008;SDS011;5557;51.670;7.788;2022-08-19T05:35:10;38.80;;;27.93;;
11008;SDS011;5557;51.670;7.788;2022-08-19T05:37:39;38.90;;;26.47;;
11008;SDS011;5557;51.670;7.788;2022-08-19T05:40:07;38.50;;;26.73;;
11008;SDS011;5557;51.670;7.788;2022-08-19T05:42:35;40.00;;;27.40;;
11008;SDS011;5557;51.670;7.788;2022-08-19T05:45:02;41.20;;;26.20;;
11008;SDS011;5557;51.670;7.788;2022-08-19T05:47:30;37.73;;;26.53;;
11008;SDS011;5557;51.670;7.788;2022-08-19T05:49:58;32.77;;;23.57;;
11008;SDS011;5557;51.670;7.788;2022-08-19T05:52:30;40.97;;;25.37;;
11008;SDS011;5557;51.670;7.788;2022-08-19T05:54:57;34.37;;;22.90;;
11008;SDS011;5557;51.670;7.788;2022-08-19T05:57:24;30.27;;;22.57;;
11008;SDS011;5557;51.670;7.788;2022-08-19T05:59:51;30.40;;;22.70;;
11008;SDS011;5557;51.670;7.788;2022-08-19T06:02:24;29.63;;;21.60;;
11008;SDS011;5557;51.670;7.788;2022-08-19T06:04:52;29.90;;;23.40;;
11008;SDS011;5557;51.670;7.788;2022-08-19T06:07:20;33.80;;;21.17;;
11008;SDS011;5557;51.670;7.788;2022-08-19T06:09:47;33.57;;;21.03;;
11008;SDS011;5557;51.670;7.788;2022-08-19T06:12:26;29.60;;;20.97;;
11008;SDS011;5557;51.670;7.788;2022-08-19T06:15:02;29.13;;;22.70;;
11008;SDS011;5557;51.670;7.788;2022-08-19T06:17:34;30.60;;;21.00;;
11008;SDS011;5557;51.670;7.788;2022-08-19T06:20:05;27.53;;;20.57;;
11008;SDS011;5557;51.670;7.788;2022-08-19T06:22:47;29.30;;;19.20;;
11008;SDS011;5557;51.670;7.788;2022-08-19T06:25:18;29.60;;;20.23;;
11008;SDS011;5557;51.670;7.788;2022-08-19T06:27:45;28.10;;;20.60;;
11008;SDS011;5557;51.670;7.788;2022-08-19T06:30:32;24.90;;;19.90;;
11008;SDS011;5557;51.670;7.788;2022-08-19T06:32:59;29.30;;;20.53;;
11008;SDS011;5557;51.670;7.788;2022-08-19T06:35:27;29.53;;;21.60;;
11008;SDS011;5557;51.670;7.788;2022-08-19T06:37:55;25.60;;;21.00;;
11008;SDS011;5557;51.670;7.788;2022-08-19T06:40:23;22.30;;;19.90;;
11008;SDS011;5557;51.670;7.788;2022-08-19T06:42:50;31.87;;;21.07;;
11008;SDS011;5557;51.670;7.788;2022-08-19T06:45:21;36.30;;;19.60;;
11008;SDS011;5557;51.670;7.788;2022-08-19T06:47:50;27.20;;;20.03;;
11008;SDS011;5557;51.670;7.788;2022-08-19T06:50:25;30.37;;;19.73;;
11008;SDS011;5557;51.670;7.788;2022-08-19T06:52:52;27.07;;;20.50;;
11008;SDS011;5557;51.670;7.788;2022-08-19T06:55:20;24.80;;;17.10;;
11008;SDS011;5557;51.670;7.788;2022-08-19T06:57:47;18.43;;;16.60;;
11008;SDS011;5557;51.670;7.788;2022-08-19T07:00:17;20.87;;;17.27;;
11008;SDS011;5557;51.670;7.788;2022-08-19T07:02:44;19.87;;;17.77;;
11008;SDS011;5557;51.670;7.788;2022-08-19T07:05:20;25.03;;;17.77;;
11008;SDS011;5557;51.670;7.788;2022-08-19T07:07:48;18.60;;;15.03;;
11008;SDS011;5557;51.670;7.788;2022-08-19T07:10:16;23.00;;;17.77;;
11008;SDS011;5557;51.670;7.788;2022-08-19T07:12:43;27.80;;;17.60;;
11008;SDS011;5557;51.670;7.788;2022-08-19T07:15:10;20.67;;;17.43;;
11008;SDS011;5557;51.670;7.788;2022-08-19T07:17:38;26.80;;;20.20;;
11008;SDS011;5557;51.670;7.788;2022-08-19T07:20:07;23.73;;;18.27;;
11008;SDS011;5557;51.670;7.788;2022-08-19T07:22:38;28.87;;;17.73;;
11008;SDS011;5557;51.670;7.788;2022-08-19T07:25:06;21.70;;;16.83;;
11008;SDS011;5557;51.670;7.788;2022-08-19T07:27:35;23.83;;;18.50;;
11008;SDS011;5557;51.670;7.788;2022-08-19T07:30:06;28.27;;;19.80;;
11008;SDS011;5557;51.670;7.788;2022-08-19T07:32:37;30.33;;;20.10;;
11008;SDS011;5557;51.670;7.788;2022-08-19T07:35:05;29.07;;;19.20;;
11008;SDS011;5557;51.670;7.788;2022-08-19T07:37:33;23.10;;;18.13;;
11008;SDS011;5557;51.670;7.788;2022-08-19T07:40:06;22.30;;;17.30;;
11008;SDS011;5557;51.670;7.788;2022-08-19T07:42:34;20.00;;;16.80;;
11008;SDS011;5557;51.670;7.788;2022-08-19T07:45:01;27.10;;;17.83;;
11008;SDS011;5557;51.670;7.788;2022-08-19T07:47:28;25.83;;;18.67;;
11008;SDS011;5557;51.670;7.788;2022-08-19T07:50:17;22.03;;;15.30;;
11008;SDS011;5557;51.670;7.788;2022-08-19T07:52:46;20.40;;;16.23;;
11008;SDS011;5557;51.670;7.788;2022-08-19T07:55:16;18.70;;;16.37;;
11008;SDS011;5557;51.670;7.788;2022-08-19T07:58:06;29.80;;;15.70;;
11008;SDS011;5557;51.670;7.788;2022-08-19T08:00:33;17.07;;;13.93;;
11008;SDS011;5557;51.670;7.788;2022-08-19T08:03:01;22.77;;;13.87;;
11008;SDS011;5557;51.670;7.788;2022-08-19T08:05:28;14.47;;;13.03;;
11008;SDS011;5557;51.670;7.788;2022-08-19T08:08:14;14.17;;;12.80;;
11008;SDS011;5557;51.670;7.788;2022-08-19T08:11:00;12.63;;;11.00;;
11008;SDS011;5557;51.670;7.788;2022-08-19T08:13:33;16.43;;;12.10;;
11008;SDS011;5557;51.670;7.788;2022-08-19T08:16:04;18.20;;;12.30;;
11008;SDS011;5557;51.670;7.788;2022-08-19T08:18:35;14.60;;;12.45;;
11008;SDS011;5557;51.670;7.788;2022-08-19T08:21:07;13.63;;;12.23;;
11008;SDS011;5557;51.670;7.788;2022-08-19T08:23:35;13.82;;;12.57;;
11008;SDS011;5557;51.670;7.788;2022-08-19T08:26:04;17.80;;;11.88;;
11008;SDS011;5557;51.670;7.788;2022-08-19T08:28:31;12.93;;;10.02;;
11008;SDS011;5557;51.670;7.788;2022-08-19T08:30:58;9.57;;;8.68;;
11008;SDS011;5557;51.670;7.788;2022-08-19T08:33:27;10.10;;;9.13;;
11008;SDS011;5557;51.670;7.788;2022-08-19T08:36:01;11.98;;;10.80;;
11008;SDS011;5557;51.670;7.788;2022-08-19T08:38:31;7.78;;;7.05;;
11008;SDS011;5557;51.670;7.788;2022-08-19T08:44:23;8.25;;;7.50;;
11008;SDS011;5557;51.670;7.788;2022-08-19T08:47:30;13.20;;;8.82;;
11008;SDS011;5557;51.670;7.788;2022-08-19T08:50:13;11.05;;;8.68;;
11008;SDS011;5557;51.670;7.788;2022-08-19T08:52:46;11.43;;;10.02;;
11008;SDS011;5557;51.670;7.788;2022-08-19T08:55:17;11.15;;;8.60;;
11008;SDS011;5557;51.670;7.788;2022-08-19T08:57:52;12.02;;;10.82;;
11008;SDS011;5557;51.670;7.788;2022-08-19T09:00:41;11.63;;;10.43;;
11008;SDS011;5557;51.670;7.788;2022-08-19T09:03:21;11.13;;;10.05;;
11008;SDS011;5557;51.670;7.788;2022-08-19T09:09:26;8.63;;;7.95;;
11008;SDS011;5557;51.670;7.788;2022-08-19T09:14:30;6.30;;;5.80;;
11008;SDS011;5557;51.670;7.788;2022-08-19T09:17:16;6.57;;;6.15;;
11008;SDS011;5557;51.670;7.788;2022-08-19T09:20:04;6.22;;;5.80;;
11008;SDS011;5557;51.670;7.788;2022-08-19T09:22:51;6.47;;;5.72;;
11008;SDS011;5557;51.670;7.788;2022-08-19T09:25:19;5.90;;;5.13;;
11008;SDS011;5557;51.670;7.788;2022-08-19T09:27:52;5.20;;;4.60;;
11008;SDS011;5557;51.670;7.788;2022-08-19T09:30:29;6.63;;;6.13;;
11008;SDS011;5557;51.670;7.788;2022-08-19T09:32:58;5.68;;;5.30;;
11008;SDS011;5557;51.670;7.788;2022-08-19T09:35:28;6.18;;;5.78;;
11008;SDS011;5557;51.670;7.788;2022-08-19T09:37:56;5.43;;;5.03;;
11008;SDS011;5557;51.670;7.788;2022-08-19T09:40:28;6.55;;;5.22;;
11008;SDS011;5557;51.670;7.788;2022-08-19T09:43:03;4.72;;;4.47;;
11008;SDS011;5557;51.670;7.788;2022-08-19T09:45:38;5.55;;;5.15;;
11008;SDS011;5557;51.670;7.788;2022-08-19T09:48:05;4.40;;;4.03;;
11008;SDS011;5557;51.670;7.788;2022-08-19T09:50:32;4.35;;;4.25;;
11008;SDS011;5557;51.670;7.788;2022-08-19T09:53:01;3.55;;;3.35;;
11008;SDS011;5557;51.670;7.788;2022-08-19T09:55:28;4.97;;;4.68;;
11008;SDS011;5557;51.670;7.788;2022-08-19T09:57:59;3.85;;;3.65;;
11008;SDS011;5557;51.670;7.788;2022-08-19T10:00:27;4.28;;;3.88;;
11008;SDS011;5557;51.670;7.788;2022-08-19T10:02:54;3.80;;;3.50;;
11008;SDS011;5557;51.670;7.788;2022-08-19T10:05:21;4.30;;;3.90;;
11008;SDS011;5557;51.670;7.788;2022-08-19T10:08:08;2.83;;;2.72;;
11008;SDS011;5557;51.670;7.788;2022-08-19T10:10:40;3.42;;;3.22;;
11008;SDS011;5557;51.670;7.788;2022-08-19T10:13:12;4.65;;;3.38;;
11008;SDS011;5557;51.670;7.788;2022-08-19T10:15:40;3.78;;;3.58;;
11008;SDS011;5557;51.670;7.788;2022-08-19T10:18:13;4.15;;;3.95;;
11008;SDS011;5557;51.670;7.788;2022-08-19T10:20:40;4.10;;;3.92;;
11008;SDS011;5557;51.670;7.788;2022-08-19T10:23:08;5.75;;;4.28;;
11008;SDS011;5557;51.670;7.788;2022-08-19T10:25:35;5.30;;;3.92;;
11008;SDS011;5557;51.670;7.788;2022-08-19T10:28:03;3.85;;;3.65;;
11008;SDS011;5557;51.670;7.788;2022-08-19T10:30:36;4.50;;;4.30;;
11008;SDS011;5557;51.670;7.788;2022-08-19T10:33:03;4.40;;;4.13;;
11008;SDS011;5557;51.670;7.788;2022-08-19T10:35:36;7.18;;;5.03;;
11008;SDS011;5557;51.670;7.788;2022-08-19T10:38:22;6.18;;;4.70;;
11008;SDS011;5557;51.670;7.788;2022-08-19T10:41:05;5.07;;;4.28;;
11008;SDS011;5557;51.670;7.788;2022-08-19T10:43:44;4.18;;;3.88;;
11008;SDS011;5557;51.670;7.788;2022-08-19T10:46:13;4.00;;;3.80;;
11008;SDS011;5557;51.670;7.788;2022-08-19T10:48:42;4.70;;;4.40;;
11008;SDS011;5557;51.670;7.788;2022-08-19T10:51:10;3.72;;;3.53;;
11008;SDS011;5557;51.670;7.788;2022-08-19T10:53:57;4.80;;;4.60;;
11008;SDS011;5557;51.670;7.788;2022-08-19T10:56:24;3.97;;;3.67;;
11008;SDS011;5557;51.670;7.788;2022-08-19T10:59:10;3.13;;;3.03;;
11008;SDS011;5557;51.670;7.788;2022-08-19T11:01:40;4.22;;;4.03;;
11008;SDS011;5557;51.670;7.788;2022-08-19T11:04:10;3.13;;;2.97;;
11008;SDS011;5557;51.670;7.788;2022-08-19T11:06:40;3.10;;;2.90;;
11008;SDS011;5557;51.670;7.788;2022-08-19T11:09:09;4.50;;;2.50;;
11008;SDS011;5557;51.670;7.788;2022-08-19T11:11:37;16.23;;;3.88;;
11008;SDS011;5557;51.670;7.788;2022-08-19T11:14:08;3.25;;;2.60;;
11008;SDS011;5557;51.670;7.788;2022-08-19T11:16:40;3.85;;;3.58;;
11008;SDS011;5557;51.670;7.788;2022-08-19T11:19:09;5.03;;;3.35;;
11008;SDS011;5557;51.670;7.788;2022-08-19T11:21:41;3.70;;;3.50;;
11008;SDS011;5557;51.670;7.788;2022-08-19T11:24:14;4.70;;;4.30;;
11008;SDS011;5557;51.670;7.788;2022-08-19T11:26:43;3.60;;;3.40;;
11008;SDS011;5557;51.670;7.788;2022-08-19T11:29:11;4.33;;;4.00;;
11008;SDS011;5557;51.670;7.788;2022-08-19T11:31:44;4.13;;;4.03;;
11008;SDS011;5557;51.670;7.788;2022-08-19T11:34:13;6.50;;;4.10;;
11008;SDS011;5557;51.670;7.788;2022-08-19T11:36:43;5.93;;;3.40;;
11008;SDS011;5557;51.670;7.788;2022-08-19T11:39:12;3.15;;;2.63;;
11008;SDS011;5557;51.670;7.788;2022-08-19T11:41:41;2.92;;;2.67;;
11008;SDS011;5557;51.670;7.788;2022-08-19T11:44:08;3.50;;;3.30;;
11008;SDS011;5557;51.670;7.788;2022-08-19T11:46:36;3.28;;;3.17;;
11008;SDS011;5557;51.670;7.788;2022-08-19T11:49:04;2.97;;;2.88;;
11008;SDS011;5557;51.670;7.788;2022-08-19T11:51:39;2.88;;;2.67;;
11008;SDS011;5557;51.670;7.788;2022-08-19T11:54:08;6.10;;;2.60;;
11008;SDS011;5557;51.670;7.788;2022-08-19T11:56:36;2.70;;;2.60;;
11008;SDS011;5557;51.670;7.788;2022-08-19T11:59:04;2.65;;;2.45;;
11008;SDS011;5557;51.670;7.788;2022-08-19T12:01:31;3.03;;;2.10;;
11008;SDS011;5557;51.670;7.788;2022-08-19T12:03:58;3.80;;;2.33;;
11008;SDS011;5557;51.670;7.788;2022-08-19T12:06:30;3.53;;;2.35;;
11008;SDS011;5557;51.670;7.788;2022-08-19T12:09:03;2.35;;;2.25;;
11008;SDS011;5557;51.670;7.788;2022-08-19T12:11:32;2.03;;;1.92;;
11008;SDS011;5557;51.670;7.788;2022-08-19T12:14:00;3.60;;;1.90;;
11008;SDS011;5557;51.670;7.788;2022-08-19T12:16:28;2.50;;;2.40;;
11008;SDS011;5557;51.670;7.788;2022-08-19T12:18:59;3.42;;;3.15;;
11008;SDS011;5557;51.670;7.788;2022-08-19T12:21:31;2.83;;;2.72;;
11008;SDS011;5557;51.670;7.788;2022-08-19T12:24:00;4.07;;;3.88;;
11008;SDS011;5557;51.670;7.788;2022-08-19T12:26:29;3.95;;;3.65;;
11008;SDS011;5557;51.670;7.788;2022-08-19T12:28:58;3.78;;;3.67;;
11008;SDS011;5557;51.670;7.788;2022-08-19T12:31:27;4.60;;;4.30;;
11008;SDS011;5557;51.670;7.788;2022-08-19T12:33:54;4.05;;;3.67;;
11008;SDS011;5557;51.670;7.788;2022-08-19T12:36:22;6.80;;;3.97;;
11008;SDS011;5557;51.670;7.788;2022-08-19T12:38:50;4.10;;;3.80;;
11008;SDS011;5557;51.670;7.788;2022-08-19T12:41:18;7.13;;;3.63;;
11008;SDS011;5557;51.670;7.788;2022-08-19T12:43:48;4.50;;;4.30;;
11008;SDS011;5557;51.670;7.788;2022-08-19T12:46:17;4.40;;;3.80;;
11008;SDS011;5557;51.670;7.788;2022-08-19T12:48:47;4.85;;;4.40;;
11008;SDS011;5557;51.670;7.788;2022-08-19T12:51:20;4.95;;;4.10;;
11008;SDS011;5557;51.670;7.788;2022-08-19T12:53:47;7.22;;;5.85;;
11008;SDS011;5557;51.670;7.788;2022-08-19T12:56:16;4.75;;;4.55;;
11008;SDS011;5557;51.670;7.788;2022-08-19T12:58:48;3.30;;;3.08;;
11008;SDS011;5557;51.670;7.788;2022-08-19T13:01:18;3.85;;;3.38;;
11008;SDS011;5557;51.670;7.788;2022-08-19T13:03:49;5.47;;;3.05;;
11008;SDS011;5557;51.670;7.788;2022-08-19T13:06:18;3.78;;;3.40;;
11008;SDS011;5557;51.670;7.788;2022-08-19T13:08:45;2.97;;;2.80;;
11008;SDS011;5557;51.670;7.788;2022-08-19T13:11:14;3.35;;;3.22;;
11008;SDS011;5557;51.670;7.788;2022-08-19T13:13:44;9.27;;;3.00;;
11008;SDS011;5557;51.670;7.788;2022-08-19T13:16:14;3.03;;;2.92;;
11008;SDS011;5557;51.670;7.788;2022-08-19T13:18:42;3.53;;;3.42;;
11008;SDS011;5557;51.670;7.788;2022-08-19T13:21:11;5.32;;;3.45;;
11008;SDS011;5557;51.670;7.788;2022-08-19T13:23:39;3.92;;;3.72;;
11008;SDS011;5557;51.670;7.788;2022-08-19T13:26:07;3.28;;;3.17;;
11008;SDS011;5557;51.670;7.788;2022-08-19T13:28:35;4.03;;;3.05;;
11008;SDS011;5557;51.670;7.788;2022-08-19T13:31:22;6.70;;;4.07;;
11008;SDS011;5557;51.670;7.788;2022-08-19T13:34:08;4.28;;;4.07;;
11008;SDS011;5557;51.670;7.788;2022-08-19T13:36:37;4.72;;;4.53;;
11008;SDS011;5557;51.670;7.788;2022-08-19T13:39:05;5.38;;;4.05;;
11008;SDS011;5557;51.670;7.788;2022-08-19T13:41:37;4.28;;;4.07;;
11008;SDS011;5557;51.670;7.788;2022-08-19T13:44:09;3.65;;;3.45;;
11008;SDS011;5557;51.670;7.788;2022-08-19T13:46:36;5.55;;;3.70;;
11008;SDS011;5557;51.670;7.788;2022-08-19T13:49:03;3.50;;;3.25;;
11008;SDS011;5557;51.670;7.788;2022-08-19T13:51:31;4.85;;;3.50;;
11008;SDS011;5557;51.670;7.788;2022-08-19T13:53:58;4.95;;;4.72;;
11008;SDS011;5557;51.670;7.788;2022-08-19T13:56:25;4.20;;;4.00;;
11008;SDS011;5557;51.670;7.788;2022-08-19T13:58:52;4.90;;;4.00;;
11008;SDS011;5557;51.670;7.788;2022-08-19T14:01:24;3.50;;;3.30;;
11008;SDS011;5557;51.670;7.788;2022-08-19T14:03:53;4.78;;;4.38;;
11008;SDS011;5557;51.670;7.788;2022-08-19T14:06:20;6.00;;;4.68;;
11008;SDS011;5557;51.670;7.788;2022-08-19T14:08:48;4.40;;;4.10;;
11008;SDS011;5557;51.670;7.788;2022-08-19T14:11:15;4.47;;;3.70;;
11008;SDS011;5557;51.670;7.788;2022-08-19T14:13:43;4.25;;;3.90;;
11008;SDS011;5557;51.670;7.788;2022-08-19T14:16:10;4.32;;;4.13;;
11008;SDS011;5557;51.670;7.788;2022-08-19T14:18:39;4.30;;;3.92;;
11008;SDS011;5557;51.670;7.788;2022-08-19T14:21:07;4.13;;;3.90;;
11008;SDS011;5557;51.670;7.788;2022-08-19T14:23:40;5.00;;;4.80;;
11008;SDS011;5557;51.670;7.788;2022-08-19T14:26:08;6.27;;;5.87;;
11008;SDS011;5557;51.670;7.788;2022-08-19T14:28:38;6.10;;;5.70;;
11008;SDS011;5557;51.670;7.788;2022-08-19T14:31:08;6.40;;;5.97;;
11008;SDS011;5557;51.670;7.788;2022-08-19T14:33:36;7.37;;;5.90;;
11008;SDS011;5557;51.670;7.788;2022-08-19T14:36:04;7.53;;;5.87;;
11008;SDS011;5557;51.670;7.788;2022-08-19T14:38:31;6.30;;;6.10;;
11008;SDS011;5557;51.670;7.788;2022-08-19T14:43:47;6.83;;;6.43;;
11008;SDS011;5557;51.670;7.788;2022-08-19T14:46:17;5.50;;;4.90;;
11008;SDS011;5557;51.670;7.788;2022-08-19T14:48:46;6.03;;;5.63;;
11008;SDS011;5557;51.670;7.788;2022-08-19T14:51:18;6.20;;;5.60;;
11008;SDS011;5557;51.670;7.788;2022-08-19T14:53:46;7.30;;;6.70;;
11008;SDS011;5557;51.670;7.788;2022-08-19T14:56:18;7.07;;;6.43;;
11008;SDS011;5557;51.670;7.788;2022-08-19T14:58:46;7.00;;;6.50;;
11008;SDS011;5557;51.670;7.788;2022-08-19T15:01:19;7.40;;;6.90;;
11008;SDS011;5557;51.670;7.788;2022-08-19T15:03:48;7.63;;;7.07;;
11008;SDS011;5557;51.670;7.788;2022-08-19T15:06:16;7.53;;;6.90;;
11008;SDS011;5557;51.670;7.788;2022-08-19T15:08:43;6.33;;;6.00;;
11008;SDS011;5557;51.670;7.788;2022-08-19T15:11:16;6.73;;;6.37;;
11008;SDS011;5557;51.670;7.788;2022-08-19T15:13:47;7.80;;;7.30;;
11008;SDS011;5557;51.670;7.788;2022-08-19T15:16:14;9.63;;;6.50;;
11008;SDS011;5557;51.670;7.788;2022-08-19T15:18:43;6.43;;;5.70;;